Time;durP1;ratioP1;P1;durP2;ratioP2;P2;SDS_P1;SDS_P2;PMS_P1;PMS_P2;Temp;Humidity;BMP_temperature;BMP_pressure;BME280_temperature;BME280_humidity;BME280_pressure;Samples;Min_cycle;Max_cycle;Signal;HPM_P1;HPM_P2
2024/04/09 00:02:13;;;;;;;;;;;;;;;;;;5408866;26;19965;-66
2024/04/09 00:04:39;;;;;;;;;;;;;;;;;;5415581;26;19938;-66
2024/04/09 00:07:04;;;;;;;;;;;;;;;;;;5408235;26;20366;-65
2024/04/09 00:09:29;;;;;;;;;;;;;;;;;;5379013;26;19937;-66
2024/04/09 00:11:54;;;;;;;;;;;;;;;;;;5409367;26;19962;-66
2024/04/09 00:14:20;;;;;;;;;;;;;;;;;;5414354;26;19929;-65
2024/04/09 00:16:45;;;;;;;;;;;;;;;;;;5409362;26;20208;-65
2024/04/09 00:19:13;;;;;;;;;;;;;;;;;;5407058;26;20051;-66
2024/04/09 00:21:39;;;;;;;;;;;;;;;;;;5412157;26;19937;-65
2024/04/09 00:24:04;;;;;;;;;;;;;;;;;;5410471;26;20271;-66
2024/04/09 00:26:31;;;;;;;;;;;;;;;;;;5398452;26;20179;-65
2024/04/09 00:28:56;;;;;;;;;;;;;;;;;;5400328;26;19941;-66
2024/04/09 00:31:21;;;;;;;;;;;;;;;;;;5401608;26;19929;-66
2024/04/09 00:33:46;;;;;;;;;;;;;;;;;;5404114;26;20413;-65
2024/04/09 00:36:15;;;;;;;;;;;;;;;;;;5414393;26;19929;-65
2024/04/09 00:38:40;;;;;;;;;;;;;;;;;;5408325;26;19961;-65
2024/04/09 00:41:05;;;;;;;;;;;;;;;;;;5408478;26;19928;-66
2024/04/09 00:43:31;;;;;;;;;;;;;;;;;;5408338;26;20326;-65
2024/04/09 00:45:56;;;;;;;;;;;;;;;;;;5400236;26;19936;-65
2024/04/09 00:48:21;;;;;;;;;;;;;;;;;;5403995;26;19942;-66
2024/04/09 00:50:46;;;;;;;;;;;;;;;;;;5407294;26;19929;-66
2024/04/09 00:53:11;;;;;;;;;;;;;;;;;;5393566;26;19965;-66
2024/04/09 00:55:40;;;;;;;;;;;;;;;;;;5406574;26;20266;-65
2024/04/09 00:58:06;;;;;;;;;;;;;;;;;;5400309;26;19957;-66
2024/04/09 01:00:31;;;;;;;;;;;;;;;;;;5402704;26;20262;-66
2024/04/09 01:02:56;;;;;;;;;;;;;;;;;;5393468;26;20313;-66
2024/04/09 01:05:21;;;;;;;;;;;;;;;;;;5401052;26;20340;-66
2024/04/09 01:07:46;;;;;;;;;;;;;;;;;;5392079;26;19929;-66
2024/04/09 01:10:11;;;;;;;;;;;;;;;;;;5407396;26;19929;-65
2024/04/09 01:12:36;;;;;;;;;;;;;;;;;;5408122;26;20277;-65
2024/04/09 01:15:01;;;;;;;;;;;;;;;;;;5414010;26;20300;-66
2024/04/09 01:17:28;;;;;;;;;;;;;;;;;;5393338;26;19936;-66
2024/04/09 01:19:54;;;;;;;;;;;;;;;;;;5393081;26;19936;-66
2024/04/09 01:22:19;;;;;;;;;;;;;;;;;;5407360;26;19929;-65
2024/04/09 01:24:44;;;;;;;;;;;;;;;;;;5400401;26;20387;-66
2024/04/09 01:27:14;;;;;;;;;;;;;;;;;;5387133;26;19938;-66
2024/04/09 01:29:39;;;;;;;;;;;;;;;;;;5405623;26;19937;-66
2024/04/09 01:32:06;;;;;;;;;;;;;;;;;;5407556;26;19929;-66
2024/04/09 01:34:32;;;;;;;;;;;;;;;;;;5413314;26;19929;-66
2024/04/09 01:36:57;;;;;;;;;;;;;;;;;;5401955;26;19936;-66
2024/04/09 01:39:22;;;;;;;;;;;;;;;;;;5392364;26;19940;-66
2024/04/09 01:41:49;;;;;;;;;;;;;;;;;;5407258;26;19937;-65
2024/04/09 01:44:15;;;;;;;;;;;;;;;;;;5401132;26;19960;-65
2024/04/09 01:46:40;;;;;;;;;;;;;;;;;;5410446;26;19929;-65
2024/04/09 01:49:05;;;;;;;;;;;;;;;;;;5397746;26;19977;-66
2024/04/09 01:51:30;;;;;;;;;;;;;;;;;;5386779;26;19930;-65
2024/04/09 01:53:55;;;;;;;;;;;;;;;;;;5405925;26;19941;-65
2024/04/09 01:56:21;;;;;;;;;;;;;;;;;;5411574;26;19964;-65
2024/04/09 01:58:46;;;;;;;;;;;;;;;;;;5406915;26;20058;-65
2024/04/09 02:01:11;;;;;;;;;;;;;;;;;;5406383;26;19956;-65
2024/04/09 02:03:36;;;;;;;;;;;;;;;;;;5407451;26;20327;-65
2024/04/09 02:06:02;;;;;;;;;;;;;;;;;;5404942;26;19945;-65
2024/04/09 02:08:27;;;;;;;;;;;;;;;;;;5399478;26;19929;-66
2024/04/09 02:10:53;;;;;;;;;;;;;;;;;;5392059;26;19929;-65
2024/04/09 02:13:19;;;;;;;;;;;;;;;;;;5406332;26;20442;-65
2024/04/09 02:15:44;;;;;;;;;;;;;;;;;;5411992;26;19929;-66
2024/04/09 02:18:10;;;;;;;;;;;;;;;;;;5397062;26;19930;-66
2024/04/09 02:20:35;;;;;;;;;;;;;;;;;;5401872;26;19936;-65
2024/04/09 02:23:03;;;;;;;;;;;;;;;;;;5401800;26;19936;-65
2024/04/09 02:25:28;;;;;;;;;;;;;;;;;;5427874;26;19936;-65
2024/04/09 02:27:53;;;;;;;;;;;;;;;;;;5400290;26;19930;-65
2024/04/09 02:30:19;;;;;;;;;;;;;;;;;;5384350;26;20060;-66
2024/04/09 02:32:45;;;;;;;;;;;;;;;;;;5404093;26;20248;-65
2024/04/09 02:35:10;;;;;;;;;;;;;;;;;;5411601;26;19998;-66
2024/04/09 02:37:35;;;;;;;;;;;;;;;;;;5405568;26;19929;-65
2024/04/09 02:40:01;;;;;;;;;;;;;;;;;;5404892;26;20301;-66
2024/04/09 02:42:26;;;;;;;;;;;;;;;;;;5408058;26;19929;-64
2024/04/09 02:44:52;;;;;;;;;;;;;;;;;;5399660;26;19936;-64
2024/04/09 02:47:17;;;;;;;;;;;;;;;;;;5380659;26;19929;-63
2024/04/09 02:49:45;;;;;;;;;;;;;;;;;;5390985;26;20026;-63
2024/04/09 02:52:11;;;;;;;;;;;;;;;;;;5405809;26;19929;-63
2024/04/09 02:54:36;;;;;;;;;;;;;;;;;;5412447;26;19928;-64
2024/04/09 02:57:01;;;;;;;;;;;;;;;;;;5407084;26;19961;-63
2024/04/09 02:59:27;;;;;;;;;;;;;;;;;;5403226;26;19929;-64
2024/04/09 03:01:52;;;;;;;;;;;;;;;;;;5383320;26;19936;-63
2024/04/09 03:04:17;;;;;;;;;;;;;;;;;;5382172;26;19936;-64
2024/04/09 03:06:42;;;;;;;;;;;;;;;;;;5408588;26;19936;-63
2024/04/09 03:09:07;;;;;;;;;;;;;;;;;;5394766;26;20051;-63
2024/04/09 03:11:32;;;;;;;;;;;;;;;;;;5384430;26;19930;-64
2024/04/09 03:13:58;;;;;;;;;;;;;;;;;;5405320;26;19929;-64
2024/04/09 03:16:23;;;;;;;;;;;;;;;;;;5410141;26;19937;-64
2024/04/09 03:18:48;;;;;;;;;;;;;;;;;;5403371;26;19929;-64
2024/04/09 03:21:13;;;;;;;;;;;;;;;;;;5403518;26;19941;-63
2024/04/09 03:23:38;;;;;;;;;;;;;;;;;;5405110;26;20051;-64
2024/04/09 03:26:05;;;;;;;;;;;;;;;;;;5406581;26;19973;-64
2024/04/09 03:28:31;;;;;;;;;;;;;;;;;;5393191;26;20565;-63
2024/04/09 03:30:56;;;;;;;;;;;;;;;;;;5395599;26;19968;-63
2024/04/09 03:33:21;;;;;;;;;;;;;;;;;;5395367;26;20263;-64
2024/04/09 03:35:46;;;;;;;;;;;;;;;;;;5412879;26;19936;-64
2024/04/09 03:38:11;;;;;;;;;;;;;;;;;;5389088;26;19939;-64
2024/04/09 03:40:36;;;;;;;;;;;;;;;;;;5399764;26;19936;-64
2024/04/09 03:43:01;;;;;;;;;;;;;;;;;;5393821;26;19940;-64
2024/04/09 03:45:26;;;;;;;;;;;;;;;;;;5401406;26;19940;-64
2024/04/09 03:47:51;;;;;;;;;;;;;;;;;;5393873;26;19929;-63
2024/04/09 03:50:16;;;;;;;;;;;;;;;;;;5398715;26;20822;-64
2024/04/09 03:52:42;;;;;;;;;;;;;;;;;;5393200;26;20277;-63
2024/04/09 03:55:07;;;;;;;;;;;;;;;;;;5400326;26;19929;-64
2024/04/09 03:57:33;;;;;;;;;;;;;;;;;;5390683;26;19957;-63
2024/04/09 03:59:58;;;;;;;;;;;;;;;;;;5397730;26;19929;-63
2024/04/09 04:02:23;;;;;;;;;;;;;;;;;;5408561;26;19936;-64
2024/04/09 04:04:48;;;;;;;;;;;;;;;;;;5406666;26;19939;-64
2024/04/09 04:07:15;;;;;;;;;;;;;;;;;;5388296;26;19941;-63
2024/04/09 04:09:41;;;;;;;;;;;;;;;;;;5393954;26;19928;-63
2024/04/09 04:12:06;;;;;;;;;;;;;;;;;;5408867;26;20486;-63
2024/04/09 04:14:31;;;;;;;;;;;;;;;;;;5385155;26;19942;-64
2024/04/09 04:16:56;;;;;;;;;;;;;;;;;;5395894;26;20079;-64
2024/04/09 04:19:21;;;;;;;;;;;;;;;;;;5399490;26;19936;-63
2024/04/09 04:21:46;;;;;;;;;;;;;;;;;;5406320;26;19936;-64
2024/04/09 04:24:12;;;;;;;;;;;;;;;;;;5396705;26;20542;-64
2024/04/09 04:26:37;;;;;;;;;;;;;;;;;;5384266;26;19957;-64
2024/04/09 04:29:03;;;;;;;;;;;;;;;;;;5397624;26;19928;-64
2024/04/09 04:31:29;;;;;;;;;;;;;;;;;;5417615;26;20457;-63
2024/04/09 04:33:54;;;;;;;;;;;;;;;;;;5406652;26;19932;-64
2024/04/09 04:36:20;;;;;;;;;;;;;;;;;;5408042;26;19936;-63
2024/04/09 04:38:45;;;;;;;;;;;;;;;;;;5407163;26;20002;-64
2024/04/09 04:41:10;;;;;;;;;;;;;;;;;;5386435;26;19929;-64
2024/04/09 04:43:35;;;;;;;;;;;;;;;;;;5400815;26;19929;-64
2024/04/09 04:46:00;;;;;;;;;;;;;;;;;;5412591;26;19929;-64
2024/04/09 04:48:27;;;;;;;;;;;;;;;;;;5406946;26;19929;-64
2024/04/09 04:50:52;;;;;;;;;;;;;;;;;;5393509;26;20281;-64
2024/04/09 04:53:17;;;;;;;;;;;;;;;;;;5408124;26;19965;-63
2024/04/09 04:55:42;;;;;;;;;;;;;;;;;;5410931;26;20018;-64
2024/04/09 04:58:07;;;;;;;;;;;;;;;;;;5400686;26;20011;-64
2024/04/09 05:00:33;;;;;;;;;;;;;;;;;;5391208;26;20251;-64
2024/04/09 05:02:58;;;;;;;;;;;;;;;;;;5389529;26;19941;-64
2024/04/09 05:05:23;;;;;;;;;;;;;;;;;;5411314;26;19937;-63
2024/04/09 05:07:48;;;;;;;;;;;;;;;;;;5392740;26;19943;-64
2024/04/09 05:10:13;;;;;;;;;;;;;;;;;;5407552;26;20278;-64
2024/04/09 05:12:38;;;;;;;;;;;;;;;;;;5408039;26;19929;-64
2024/04/09 05:15:03;;;;;;;;;;;;;;;;;;5411310;26;19941;-64
2024/04/09 05:17:29;;;;;;;;;;;;;;;;;;5405760;26;19937;-64
2024/04/09 05:19:54;;;;;;;;;;;;;;;;;;5392705;26;19941;-64
2024/04/09 05:22:23;;;;;;;;;;;;;;;;;;5407516;26;19929;-64
2024/04/09 05:24:50;;;;;;;;;;;;;;;;;;5399304;26;19943;-64
2024/04/09 05:27:15;;;;;;;;;;;;;;;;;;5404932;26;19933;-64
2024/04/09 05:29:40;;;;;;;;;;;;;;;;;;5393558;26;19944;-64
2024/04/09 05:32:05;;;;;;;;;;;;;;;;;;5407116;26;19981;-64
2024/04/09 05:34:30;;;;;;;;;;;;;;;;;;5394594;26;19941;-64
2024/04/09 05:36:55;;;;;;;;;;;;;;;;;;5407348;26;19937;-64
2024/04/09 05:39:21;;;;;;;;;;;;;;;;;;5404101;26;19969;-64
2024/04/09 05:41:46;;;;;;;;;;;;;;;;;;5391260;26;19933;-64
2024/04/09 05:44:11;;;;;;;;;;;;;;;;;;5401226;26;19929;-64
2024/04/09 05:46:39;;;;;;;;;;;;;;;;;;5389049;26;19939;-64
2024/04/09 05:49:04;;;;;;;;;;;;;;;;;;5405322;26;20329;-63
2024/04/09 05:51:29;;;;;;;;;;;;;;;;;;5399907;26;20311;-64
2024/04/09 05:53:54;;;;;;;;;;;;;;;;;;5380807;26;19929;-64
2024/04/09 05:56:20;;;;;;;;;;;;;;;;;;5398575;26;19937;-63
2024/04/09 05:58:45;;;;;;;;;;;;;;;;;;5399918;26;19940;-64
2024/04/09 06:01:10;;;;;;;;;;;;;;;;;;5403504;26;19936;-64
2024/04/09 06:03:35;;;;;;;;;;;;;;;;;;5406298;26;19929;-64
2024/04/09 06:06:00;;;;;;;;;;;;;;;;;;5408711;26;20017;-63
2024/04/09 06:08:25;;;;;;;;;;;;;;;;;;5406141;26;19933;-63
2024/04/09 06:10:50;;;;;;;;;;;;;;;;;;5382034;26;20001;-64
2024/04/09 06:13:16;;;;;;;;;;;;;;;;;;5406475;26;19936;-64
2024/04/09 06:15:41;;;;;;;;;;;;;;;;;;5409478;26;19936;-64
2024/04/09 06:18:06;;;;;;;;;;;;;;;;;;5402345;26;19949;-64
2024/04/09 06:20:31;;;;;;;;;;;;;;;;;;5403569;26;20340;-64
2024/04/09 06:22:56;;;;;;;;;;;;;;;;;;5388620;26;19937;-64
2024/04/09 06:25:22;;;;;;;;;;;;;;;;;;5394402;26;20020;-64
2024/04/09 06:27:47;;;;;;;;;;;;;;;;;;5411647;26;20312;-64
2024/04/09 06:30:12;;;;;;;;;;;;;;;;;;5433418;26;19928;-64
2024/04/09 06:32:38;;;;;;;;;;;;;;;;;;5406989;26;19929;-64
2024/04/09 06:35:03;;;;;;;;;;;;;;;;;;5394186;26;19929;-64
2024/04/09 06:37:30;;;;;;;;;;;;;;;;;;5407241;26;19929;-64
2024/04/09 06:39:55;;;;;;;;;;;;;;;;;;5405902;26;19951;-64
2024/04/09 06:42:20;;;;;;;;;;;;;;;;;;5390875;26;19929;-64
2024/04/09 06:44:46;;;;;;;;;;;;;;;;;;5408707;26;19929;-64
2024/04/09 06:47:12;;;;;;;;;;;;;;;;;;5405760;26;19929;-63
2024/04/09 06:49:37;;;;;;;;;;;;;;;;;;5399904;26;19937;-63
2024/04/09 06:52:02;;;;;;;;;;;;;;;;;;5404144;26;20287;-65
2024/04/09 06:54:28;;;;;;;;;;;;;;;;;;5406131;26;19929;-63
2024/04/09 06:56:53;;;;;;;;;;;;;;;;;;5420765;26;19929;-63
2024/04/09 06:59:18;;;;;;;;;;;;;;;;;;5421231;26;20006;-63
2024/04/09 07:01:43;;;;;;;;;;;;;;;;;;5419104;26;19980;-64
2024/04/09 07:04:08;;;;;;;;;;;;;;;;;;5405051;26;19936;-64
2024/04/09 07:06:33;;;;;;;;;;;;;;;;;;5411970;26;20464;-64
2024/04/09 07:09:02;;;;;;;;;;;;;;;;;;5404974;26;19929;-64
2024/04/09 07:11:28;;;;;;;;;;;;;;;;;;5410522;26;19933;-63
2024/04/09 07:13:53;;;;;;;;;;;;;;;;;;5409181;26;19979;-64
2024/04/09 07:16:18;;;;;;;;;;;;;;;;;;5397329;26;19936;-64
2024/04/09 07:18:43;;;;;;;;;;;;;;;;;;5407935;26;19929;-63
2024/04/09 07:21:08;;;;;;;;;;;;;;;;;;5407533;26;19940;-64
2024/04/09 07:23:33;;;;;;;;;;;;;;;;;;5407407;26;19937;-63
2024/04/09 07:25:59;;;;;;;;;;;;;;;;;;5408693;26;19998;-63
2024/04/09 07:28:24;;;;;;;;;;;;;;;;;;5395033;26;20744;-63
2024/04/09 07:30:50;;;;;;;;;;;;;;;;;;5408029;26;19941;-63
2024/04/09 07:33:15;;;;;;;;;;;;;;;;;;5408198;26;19929;-63
2024/04/09 07:35:41;;;;;;;;;;;;;;;;;;5404264;26;19981;-63
2024/04/09 07:38:06;;;;;;;;;;;;;;;;;;5379403;26;19930;-64
2024/04/09 07:40:31;;;;;;;;;;;;;;;;;;5405039;26;19936;-63
2024/04/09 07:42:57;;;;;;;;;;;;;;;;;;5407528;26;19929;-63
2024/04/09 07:45:22;;;;;;;;;;;;;;;;;;5397919;26;20340;-63
2024/04/09 07:47:49;;;;;;;;;;;;;;;;;;5407687;26;19929;-63
2024/04/09 07:50:14;;;;;;;;;;;;;;;;;;5406602;26;19936;-63
2024/04/09 07:52:39;;;;;;;;;;;;;;;;;;5397019;26;20037;-63
2024/04/09 07:55:05;;;;;;;;;;;;;;;;;;5405741;26;20344;-63
2024/04/09 07:57:30;;;;;;;;;;;;;;;;;;5407775;26;20033;-63
2024/04/09 07:59:55;;;;;;;;;;;;;;;;;;5409097;26;20002;-63
2024/04/09 08:02:20;;;;;;;;;;;;;;;;;;5392480;26;20232;-63
2024/04/09 08:04:46;;;;;;;;;;;;;;;;;;5406508;26;19933;-63
2024/04/09 08:07:11;;;;;;;;;;;;;;;;;;5409320;26;19936;-63
2024/04/09 08:09:36;;;;;;;;;;;;;;;;;;5397978;26;19929;-63
2024/04/09 08:12:01;;;;;;;;;;;;;;;;;;5402857;26;20258;-64
2024/04/09 08:14:26;;;;;;;;;;;;;;;;;;5408719;26;19929;-63
2024/04/09 08:16:51;;;;;;;;;;;;;;;;;;5396598;26;20357;-64
2024/04/09 08:19:17;;;;;;;;;;;;;;;;;;5408944;26;19937;-63
2024/04/09 08:21:42;;;;;;;;;;;;;;;;;;5408695;26;20266;-63
2024/04/09 08:24:07;;;;;;;;;;;;;;;;;;5405499;26;19937;-64
2024/04/09 08:26:33;;;;;;;;;;;;;;;;;;5404796;26;19937;-63
2024/04/09 08:29:03;;;;;;;;;;;;;;;;;;5403673;26;20486;-63
2024/04/09 08:31:29;;;;;;;;;;;;;;;;;;5398581;26;19949;-63
2024/04/09 08:33:54;;;;;;;;;;;;;;;;;;5406476;26;19929;-63
2024/04/09 08:36:19;;;;;;;;;;;;;;;;;;5404057;26;19984;-63
2024/04/09 08:38:44;;;;;;;;;;;;;;;;;;5385288;26;19929;-63
2024/04/09 08:41:09;;;;;;;;;;;;;;;;;;5393746;26;19929;-63
2024/04/09 08:43:34;;;;;;;;;;;;;;;;;;5408304;26;19929;-63
2024/04/09 08:45:59;;;;;;;;;;;;;;;;;;5408428;26;20381;-63
2024/04/09 08:48:25;;;;;;;;;;;;;;;;;;5400982;26;19930;-63
2024/04/09 08:50:50;;;;;;;;;;;;;;;;;;5387588;26;19973;-63
2024/04/09 08:53:15;;;;;;;;;;;;;;;;;;5405773;26;19929;-64
2024/04/09 08:55:40;;;;;;;;;;;;;;;;;;5409827;26;19929;-63
2024/04/09 08:58:06;;;;;;;;;;;;;;;;;;5407371;26;19933;-64
2024/04/09 09:00:31;;;;;;;;;;;;;;;;;;5408103;26;19929;-65
2024/04/09 09:02:56;;;;;;;;;;;;;;;;;;5393610;26;20265;-63
2024/04/09 09:05:22;;;;;;;;;;;;;;;;;;5403012;26;20381;-63
2024/04/09 09:07:47;;;;;;;;;;;;;;;;;;5404540;26;19941;-63
2024/04/09 09:10:13;;;;;;;;;;;;;;;;;;5393312;26;19935;-63
2024/04/09 09:12:38;;;;;;;;;;;;;;;;;;5408011;26;20439;-63
2024/04/09 09:15:04;;;;;;;;;;;;;;;;;;5409087;26;19937;-63
2024/04/09 09:17:30;;;;;;;;;;;;;;;;;;5386596;26;20016;-63
2024/04/09 09:19:55;;;;;;;;;;;;;;;;;;5407580;26;19929;-63
2024/04/09 09:22:21;;;;;;;;;;;;;;;;;;5406184;26;20002;-63
2024/04/09 09:24:46;;;;;;;;;;;;;;;;;;5406805;26;20283;-63
2024/04/09 09:27:11;;;;;;;;;;;;;;;;;;5391849;26;20378;-63
2024/04/09 09:29:36;;;;;;;;;;;;;;;;;;5381329;26;19929;-63
2024/04/09 09:32:01;;;;;;;;;;;;;;;;;;5407193;26;19989;-64
2024/04/09 09:34:26;;;;;;;;;;;;;;;;;;5407570;26;19978;-63
2024/04/09 09:36:51;;;;;;;;;;;;;;;;;;5407612;26;19941;-63
2024/04/09 09:39:16;;;;;;;;;;;;;;;;;;5407461;26;19929;-63
2024/04/09 09:41:41;;;;;;;;;;;;;;;;;;5408507;26;19929;-63
2024/04/09 09:44:07;;;;;;;;;;;;;;;;;;5407455;26;20543;-64
2024/04/09 09:46:32;;;;;;;;;;;;;;;;;;5406760;26;19937;-63
2024/04/09 09:48:57;;;;;;;;;;;;;;;;;;5407691;26;19998;-63
2024/04/09 09:51:22;;;;;;;;;;;;;;;;;;5406593;26;19936;-63
2024/04/09 09:53:47;;;;;;;;;;;;;;;;;;5407301;26;19944;-63
2024/04/09 09:56:12;;;;;;;;;;;;;;;;;;5407857;26;19996;-63
2024/04/09 09:58:38;;;;;;;;;;;;;;;;;;5407216;26;19952;-63
2024/04/09 10:01:04;;;;;;;;;;;;;;;;;;5399490;26;19929;-63
2024/04/09 10:03:29;;;;;;;;;;;;;;;;;;5401244;26;19936;-63
2024/04/09 10:05:54;;;;;;;;;;;;;;;;;;5399826;26;19940;-63
2024/04/09 10:08:19;;;;;;;;;;;;;;;;;;5402725;26;19929;-63
2024/04/09 10:10:44;;;;;;;;;;;;;;;;;;5396376;26;19940;-63
2024/04/09 10:13:09;;;;;;;;;;;;;;;;;;5406749;26;19969;-63
2024/04/09 10:15:35;;;;;;;;;;;;;;;;;;5407813;26;19929;-63
2024/04/09 10:18:04;;;;;;;;;;;;;;;;;;5406162;26;20266;-62
2024/04/09 10:20:30;;;;;;;;;;;;;;;;;;5398962;26;19933;-62
2024/04/09 10:22:57;;;;;;;;;;;;;;;;;;5392486;26;19940;-63
2024/04/09 10:25:22;;;;;;;;;;;;;;;;;;5403325;26;19940;-62
2024/04/09 10:27:47;;;;;;;;;;;;;;;;;;5396513;26;19936;-63
2024/04/09 10:30:12;;;;;;;;;;;;;;;;;;5405564;26;19941;-63
2024/04/09 10:32:37;;;;;;;;;;;;;;;;;;5392070;26;20001;-63
2024/04/09 10:35:03;;;;;;;;;;;;;;;;;;5411347;26;19929;-63
2024/04/09 10:37:28;;;;;;;;;;;;;;;;;;5404236;26;20369;-63
2024/04/09 10:39:53;;;;;;;;;;;;;;;;;;5419872;26;19929;-63
2024/04/09 10:42:19;;;;;;;;;;;;;;;;;;5411266;26;19939;-63
2024/04/09 10:44:44;;;;;;;;;;;;;;;;;;5439489;26;20262;-62
2024/04/09 10:47:09;;;;;;;;;;;;;;;;;;5414027;26;20239;-62
2024/04/09 10:49:35;;;;;;;;;;;;;;;;;;5420549;26;19929;-62
2024/04/09 10:52:00;;;;;;;;;;;;;;;;;;5429984;26;19936;-62
2024/04/09 10:54:28;;;;;;;;;;;;;;;;;;5440345;26;20340;-62
2024/04/09 10:56:53;;;;;;;;;;;;;;;;;;5443890;26;20008;-62
2024/04/09 10:59:22;;;;;;;;;;;;;;;;;;5443757;26;19942;-62
2024/04/09 11:01:47;;;;;;;;;;;;;;;;;;5419586;26;19929;-62
2024/04/09 11:04:13;;;;;;;;;;;;;;;;;;5415013;26;19929;-63
2024/04/09 11:06:38;;;;;;;;;;;;;;;;;;5429097;26;20377;-63
2024/04/09 11:09:05;;;;;;;;;;;;;;;;;;5435155;26;20394;-63
2024/04/09 11:11:30;;;;;;;;;;;;;;;;;;5429137;26;19997;-63
2024/04/09 11:13:55;;;;;;;;;;;;;;;;;;5437598;26;19966;-62
2024/04/09 11:16:20;;;;;;;;;;;;;;;;;;5442181;26;20479;-63
2024/04/09 11:18:45;;;;;;;;;;;;;;;;;;5441111;26;19968;-63
2024/04/09 11:21:11;;;;;;;;;;;;;;;;;;5435782;26;20001;-63
2024/04/09 11:23:36;;;;;;;;;;;;;;;;;;5438622;26;20246;-63
2024/04/09 11:26:04;;;;;;;;;;;;;;;;;;5429738;26;20607;-63
2024/04/09 11:28:30;;;;;;;;;;;;;;;;;;5438463;26;20256;-63
2024/04/09 11:30:56;;;;;;;;;;;;;;;;;;5432750;26;19929;-63
2024/04/09 11:33:21;;;;;;;;;;;;;;;;;;5417853;26;19944;-63
2024/04/09 11:35:46;;;;;;;;;;;;;;;;;;5419020;26;19936;-63
2024/04/09 11:38:12;;;;;;;;;;;;;;;;;;5422063;26;19928;-63
2024/04/09 11:40:37;;;;;;;;;;;;;;;;;;5412201;26;19929;-63
2024/04/09 11:43:02;;;;;;;;;;;;;;;;;;5421067;26;20005;-63
2024/04/09 11:45:28;;;;;;;;;;;;;;;;;;5427015;26;19998;-63
2024/04/09 11:47:53;;;;;;;;;;;;;;;;;;5412670;26;19936;-64
2024/04/09 11:50:18;;;;;;;;;;;;;;;;;;5425566;26;19928;-64
2024/04/09 11:52:43;;;;;;;;;;;;;;;;;;5429487;26;19965;-64
2024/04/09 11:55:08;;;;;;;;;;;;;;;;;;5429888;26;20125;-64
2024/04/09 11:57:33;;;;;;;;;;;;;;;;;;5429445;26;19936;-64
2024/04/09 11:59:59;;;;;;;;;;;;;;;;;;5411708;26;20375;-62
2024/04/09 12:02:24;;;;;;;;;;;;;;;;;;5440362;26;19929;-64
2024/04/09 12:04:49;;;;;;;;;;;;;;;;;;5445414;26;19940;-64
2024/04/09 12:07:14;;;;;;;;;;;;;;;;;;5444924;26;19928;-64
2024/04/09 12:09:39;;;;;;;;;;;;;;;;;;5438623;26;19932;-64
2024/04/09 12:12:08;;;;;;;;;;;;;;;;;;5435545;26;20357;-64
2024/04/09 12:14:33;;;;;;;;;;;;;;;;;;5443297;26;19928;-64
2024/04/09 12:16:58;;;;;;;;;;;;;;;;;;5433109;26;19929;-64
2024/04/09 12:19:23;;;;;;;;;;;;;;;;;;5422747;26;19969;-64
2024/04/09 12:21:48;;;;;;;;;;;;;;;;;;5421613;26;20204;-64
2024/04/09 12:24:14;;;;;;;;;;;;;;;;;;5420726;26;19995;-64
2024/04/09 12:26:39;;;;;;;;;;;;;;;;;;5435646;26;19937;-64
2024/04/09 12:29:04;;;;;;;;;;;;;;;;;;5422025;26;20376;-64
2024/04/09 12:31:29;;;;;;;;;;;;;;;;;;5423063;26;20327;-64
2024/04/09 12:33:54;;;;;;;;;;;;;;;;;;5416084;26;20431;-64
2024/04/09 12:36:19;;;;;;;;;;;;;;;;;;5428108;26;20453;-64
2024/04/09 12:38:44;;;;;;;;;;;;;;;;;;5411729;26;19929;-64
2024/04/09 12:41:10;;;;;;;;;;;;;;;;;;5413258;26;19936;-64
2024/04/09 12:43:35;;;;;;;;;;;;;;;;;;5423924;26;19935;-64
2024/04/09 12:46:02;;;;;;;;;;;;;;;;;;5419042;26;19930;-64
2024/04/09 12:48:27;;;;;;;;;;;;;;;;;;5424391;26;19940;-64
2024/04/09 12:50:52;;;;;;;;;;;;;;;;;;5436543;26;19980;-63
2024/04/09 12:53:17;;;;;;;;;;;;;;;;;;5421486;26;20332;-63
2024/04/09 12:55:44;;;;;;;;;;;;;;;;;;5422051;26;20678;-64
2024/04/09 12:58:09;;;;;;;;;;;;;;;;;;5441814;26;20022;-64
2024/04/09 13:00:34;;;;;;;;;;;;;;;;;;5440092;26;19936;-64
2024/04/09 13:03:01;;;;;;;;;;;;;;;;;;5422866;26;19958;-64
2024/04/09 13:05:26;;;;;;;;;;;;;;;;;;5424444;26;20396;-64
2024/04/09 13:07:51;;;;;;;;;;;;;;;;;;5444233;26;19928;-64
2024/04/09 13:10:17;;;;;;;;;;;;;;;;;;5443632;26;19935;-63
2024/04/09 13:12:42;;;;;;;;;;;;;;;;;;5426310;26;19961;-63
2024/04/09 13:15:07;;;;;;;;;;;;;;;;;;5434035;26;19928;-63
2024/04/09 13:17:32;;;;;;;;;;;;;;;;;;5443611;26;19963;-63
2024/04/09 13:19:58;;;;;;;;;;;;;;;;;;5424340;26;19956;-63
2024/04/09 13:22:23;;;;;;;;;;;;;;;;;;5407440;26;19928;-63
2024/04/09 13:24:50;;;;;;;;;;;;;;;;;;5443677;26;19933;-63
2024/04/09 13:27:15;;;;;;;;;;;;;;;;;;5443533;26;19935;-63
2024/04/09 13:29:40;;;;;;;;;;;;;;;;;;5426484;26;19960;-63
2024/04/09 13:32:05;;;;;;;;;;;;;;;;;;5421895;26;19929;-63
2024/04/09 13:34:32;;;;;;;;;;;;;;;;;;5436899;26;19936;-63
2024/04/09 13:36:57;;;;;;;;;;;;;;;;;;5434483;26;19928;-63
2024/04/09 13:39:22;;;;;;;;;;;;;;;;;;5442942;26;19928;-63
2024/04/09 13:41:48;;;;;;;;;;;;;;;;;;5434540;26;19928;-63
2024/04/09 13:44:13;;;;;;;;;;;;;;;;;;5423255;26;19929;-63
2024/04/09 13:46:38;;;;;;;;;;;;;;;;;;5437436;26;19939;-63
2024/04/09 13:49:04;;;;;;;;;;;;;;;;;;5443525;26;19928;-63
2024/04/09 13:51:29;;;;;;;;;;;;;;;;;;5427579;26;19964;-64
2024/04/09 13:53:54;;;;;;;;;;;;;;;;;;5420232;26;19936;-63
2024/04/09 13:56:19;;;;;;;;;;;;;;;;;;5442096;26;20012;-64
2024/04/09 13:58:44;;;;;;;;;;;;;;;;;;5436927;26;19974;-63
2024/04/09 14:01:09;;;;;;;;;;;;;;;;;;5409596;26;19929;-63
2024/04/09 14:03:35;;;;;;;;;;;;;;;;;;5417463;26;19928;-63
2024/04/09 14:06:00;;;;;;;;;;;;;;;;;;5428458;26;19961;-63
2024/04/09 14:08:25;;;;;;;;;;;;;;;;;;5427324;26;19936;-63
2024/04/09 14:10:51;;;;;;;;;;;;;;;;;;5425989;26;19997;-63
2024/04/09 14:13:16;;;;;;;;;;;;;;;;;;5415921;26;20403;-63
2024/04/09 14:15:41;;;;;;;;;;;;;;;;;;5421076;26;19932;-63
2024/04/09 14:18:10;;;;;;;;;;;;;;;;;;5421401;26;20416;-63
2024/04/09 14:20:35;;;;;;;;;;;;;;;;;;5419185;26;20219;-63
2024/04/09 14:23:00;;;;;;;;;;;;;;;;;;5406895;26;20364;-63
2024/04/09 14:25:25;;;;;;;;;;;;;;;;;;5430189;26;19939;-64
2024/04/09 14:27:50;;;;;;;;;;;;;;;;;;5435860;26;19928;-63
2024/04/09 14:30:15;;;;;;;;;;;;;;;;;;5409245;26;19929;-64
2024/04/09 14:32:40;;;;;;;;;;;;;;;;;;5422115;26;20436;-63
2024/04/09 14:35:05;;;;;;;;;;;;;;;;;;5428610;26;20453;-63
2024/04/09 14:37:31;;;;;;;;;;;;;;;;;;5417803;26;19999;-63
2024/04/09 14:39:56;;;;;;;;;;;;;;;;;;5412976;26;19956;-63
2024/04/09 14:42:21;;;;;;;;;;;;;;;;;;5427047;26;19935;-63
2024/04/09 14:44:46;;;;;;;;;;;;;;;;;;5436526;26;19932;-63
2024/04/09 14:47:11;;;;;;;;;;;;;;;;;;5436415;26;19985;-64
2024/04/09 14:49:36;;;;;;;;;;;;;;;;;;5437013;26;19935;-64
2024/04/09 14:52:01;;;;;;;;;;;;;;;;;;5426062;26;20353;-64
2024/04/09 14:54:26;;;;;;;;;;;;;;;;;;5442083;26;19932;-64
2024/04/09 14:56:52;;;;;;;;;;;;;;;;;;5411774;26;19948;-64
2024/04/09 14:59:17;;;;;;;;;;;;;;;;;;5441557;26;20426;-64
2024/04/09 15:01:42;;;;;;;;;;;;;;;;;;5428686;26;19929;-64
2024/04/09 15:04:07;;;;;;;;;;;;;;;;;;5426439;26;19960;-63
2024/04/09 15:06:32;;;;;;;;;;;;;;;;;;5416337;26;19929;-63
2024/04/09 15:08:58;;;;;;;;;;;;;;;;;;5406826;26;20373;-63
2024/04/09 15:11:23;;;;;;;;;;;;;;;;;;5418091;26;20274;-63
2024/04/09 15:13:48;;;;;;;;;;;;;;;;;;5438960;26;19960;-64
2024/04/09 15:16:13;;;;;;;;;;;;;;;;;;5440821;26;19939;-63
2024/04/09 15:18:38;;;;;;;;;;;;;;;;;;5441647;26;19946;-63
2024/04/09 15:21:03;;;;;;;;;;;;;;;;;;5425744;26;19940;-64
2024/04/09 15:23:32;;;;;;;;;;;;;;;;;;5423108;26;19947;-63
2024/04/09 15:25:57;;;;;;;;;;;;;;;;;;5430610;26;19935;-64
2024/04/09 15:28:22;;;;;;;;;;;;;;;;;;5433197;26;19929;-64
2024/04/09 15:30:49;;;;;;;;;;;;;;;;;;5426988;26;19997;-63
2024/04/09 15:33:14;;;;;;;;;;;;;;;;;;5435851;26;19928;-64
2024/04/09 15:35:39;;;;;;;;;;;;;;;;;;5435017;26;19935;-63
2024/04/09 15:38:05;;;;;;;;;;;;;;;;;;5433606;26;19928;-65
2024/04/09 15:40:32;;;;;;;;;;;;;;;;;;5444982;26;20386;-63
2024/04/09 15:42:57;;;;;;;;;;;;;;;;;;5464711;26;20274;-63
2024/04/09 15:45:22;;;;;;;;;;;;;;;;;;5444867;26;19956;-63
2024/04/09 15:47:47;;;;;;;;;;;;;;;;;;5445140;26;19935;-64
2024/04/09 15:50:12;;;;;;;;;;;;;;;;;;5444670;26;20352;-64
2024/04/09 15:52:37;;;;;;;;;;;;;;;;;;5436739;26;19929;-63
2024/04/09 15:55:04;;;;;;;;;;;;;;;;;;5423914;26;19937;-63
2024/04/09 15:57:29;;;;;;;;;;;;;;;;;;5436206;26;19929;-63
2024/04/09 15:59:54;;;;;;;;;;;;;;;;;;5443907;26;19951;-63
2024/04/09 16:02:19;;;;;;;;;;;;;;;;;;5436297;26;20396;-64
2024/04/09 16:04:44;;;;;;;;;;;;;;;;;;5429857;26;19935;-64
2024/04/09 16:07:09;;;;;;;;;;;;;;;;;;5438185;26;20345;-63
2024/04/09 16:09:34;;;;;;;;;;;;;;;;;;5445569;26;20366;-63
2024/04/09 16:11:59;;;;;;;;;;;;;;;;;;5419120;26;19943;-63
2024/04/09 16:14:25;;;;;;;;;;;;;;;;;;5443830;26;19947;-63
2024/04/09 16:16:51;;;;;;;;;;;;;;;;;;5439247;26;19937;-63
2024/04/09 16:19:16;;;;;;;;;;;;;;;;;;5444861;26;20005;-64
2024/04/09 16:21:41;;;;;;;;;;;;;;;;;;5472338;26;20273;-65
2024/04/09 16:24:07;;;;;;;;;;;;;;;;;;5435343;26;20364;-64
2024/04/09 16:26:32;;;;;;;;;;;;;;;;;;5441781;26;19929;-64
2024/04/09 16:28:58;;;;;;;;;;;;;;;;;;5423332;26;19939;-63
2024/04/09 16:31:23;;;;;;;;;;;;;;;;;;5413361;26;19930;-63
2024/04/09 16:33:48;;;;;;;;;;;;;;;;;;5434939;26;19933;-63